createdAt,value
2022-08-02T21:31:22.689Z,21.50
2022-08-02T21:33:58.844Z,21.50
2022-08-02T21:36:31.896Z,21.50
2022-08-02T21:39:05.784Z,21.40
2022-08-02T21:41:39.441Z,21.40
2022-08-02T21:44:13.264Z,21.30
2022-08-02T21:46:40.762Z,21.30
2022-08-02T21:49:11.281Z,21.20
2022-08-02T21:51:39.231Z,21.20
2022-08-02T21:54:16.933Z,21.10
2022-08-02T21:56:46.454Z,21.10
2022-08-02T21:59:16.943Z,21.10
2022-08-02T22:01:52.383Z,21.00
2022-08-02T22:04:20.510Z,21.00
2022-08-02T22:06:49.127Z,20.90
2022-08-02T22:09:43.655Z,20.90
2022-08-02T22:12:09.722Z,20.80
2022-08-02T22:14:39.567Z,20.80
2022-08-02T22:17:08.782Z,20.70
2022-08-02T22:19:36.093Z,20.70
2022-08-02T22:22:02.914Z,20.70
2022-08-02T22:24:30.501Z,20.60
2022-08-02T22:26:57.856Z,20.60
2022-08-02T22:29:25.191Z,20.50
2022-08-02T22:31:52.309Z,20.50
2022-08-02T22:34:26.681Z,20.50
2022-08-02T22:37:07.267Z,20.50
2022-08-02T22:39:34.593Z,20.50
2022-08-02T22:42:06.947Z,20.50
2022-08-02T22:44:44.248Z,20.40
2022-08-02T22:47:14.497Z,20.40
2022-08-02T22:49:51.857Z,20.40
2022-08-02T22:52:21.781Z,20.30
2022-08-02T22:54:48.819Z,20.30
2022-08-02T22:57:17.859Z,20.30
2022-08-02T22:59:58.146Z,20.30
2022-08-02T23:02:25.211Z,20.30
2022-08-02T23:04:52.271Z,20.20
2022-08-02T23:07:18.972Z,20.20
2022-08-02T23:09:45.746Z,20.10
2022-08-02T23:12:12.443Z,20.10
2022-08-02T23:14:39.131Z,20.00
2022-08-02T23:17:24.236Z,20.00
2022-08-02T23:19:50.987Z,20.00
2022-08-02T23:22:30.015Z,20.00
2022-08-02T23:25:00.509Z,19.90
2022-08-02T23:27:28.115Z,19.90
2022-08-02T23:29:55.066Z,19.80
2022-08-02T23:32:22.857Z,19.90
2022-08-02T23:34:53.418Z,19.90
2022-08-02T23:37:20.509Z,19.90
2022-08-02T23:39:47.195Z,19.90
2022-08-02T23:42:14.559Z,19.80
2022-08-02T23:44:41.640Z,19.80
2022-08-02T23:47:08.348Z,19.80
